createdAt,value
2023-03-12T00:02:18.898Z,7.90
2023-03-12T00:04:45.511Z,8.67
2023-03-12T00:07:12.163Z,8.93
2023-03-12T00:09:39.488Z,8.60
2023-03-12T00:12:06.881Z,9.07
2023-03-12T00:14:33.762Z,9.10
2023-03-12T00:17:00.431Z,8.10
2023-03-12T00:19:27.070Z,10.03
2023-03-12T00:21:53.631Z,8.70
2023-03-12T00:24:20.286Z,8.93
2023-03-12T00:26:46.834Z,10.03
2023-03-12T00:29:13.597Z,9.67
2023-03-12T00:31:40.277Z,9.50
2023-03-12T00:34:07.150Z,9.97
2023-03-12T00:36:33.785Z,9.00
2023-03-12T00:39:01.101Z,9.13
2023-03-12T00:41:28.402Z,9.50
2023-03-12T00:43:55.016Z,9.10
2023-03-12T00:46:22.321Z,9.50
2023-03-12T00:48:49.034Z,8.97
2023-03-12T00:51:15.794Z,8.30
2023-03-12T00:53:42.458Z,7.80
2023-03-12T00:56:09.089Z,8.60
2023-03-12T00:58:35.751Z,9.30
2023-03-12T01:01:03.469Z,9.13
2023-03-12T01:03:30.101Z,8.27
2023-03-12T01:05:56.652Z,9.00
2023-03-12T01:08:23.848Z,9.00
2023-03-12T01:10:50.908Z,8.53
2023-03-12T01:13:17.990Z,8.50
2023-03-12T01:15:44.568Z,8.83
2023-03-12T01:18:11.282Z,9.27
2023-03-12T01:20:37.886Z,8.70
2023-03-12T01:23:04.451Z,9.33
2023-03-12T01:25:31.191Z,8.67
2023-03-12T01:27:57.773Z,9.50
2023-03-12T01:30:24.400Z,10.40
2023-03-12T01:32:52.328Z,8.27
2023-03-12T01:35:19.075Z,10.67
2023-03-12T01:37:46.085Z,9.90
2023-03-12T01:40:18.275Z,9.33
2023-03-12T01:42:56.079Z,10.63
2023-03-12T01:46:00.977Z,9.77
2023-03-12T01:48:31.950Z,9.17
2023-03-12T01:50:59.854Z,10.10
2023-03-12T01:53:26.834Z,9.27
2023-03-12T01:55:53.387Z,9.70
2023-03-12T01:58:20.054Z,9.43
2023-03-12T02:00:46.658Z,9.60
2023-03-12T02:03:15.095Z,10.17
2023-03-12T02:06:00.193Z,9.20
2023-03-12T02:08:27.142Z,9.43
2023-03-12T02:10:53.781Z,8.97
2023-03-12T02:13:20.684Z,10.07
2023-03-12T02:15:47.506Z,9.47
2023-03-12T02:18:17.916Z,9.60
2023-03-12T02:20:53.133Z,9.77
2023-03-12T02:23:28.808Z,8.53
2023-03-12T02:25:57.701Z,8.90
2023-03-12T02:28:27.922Z,8.10
2023-03-12T02:30:59.819Z,8.57
2023-03-12T02:33:26.552Z,8.20
2023-03-12T02:35:54.189Z,8.27
2023-03-12T02:38:38.010Z,8.97
2023-03-12T02:41:28.552Z,9.07
2023-03-12T02:44:01.185Z,8.33
2023-03-12T02:46:29.101Z,8.40
2023-03-12T02:48:56.456Z,8.80
2023-03-12T02:51:23.128Z,9.33
2023-03-12T02:53:54.606Z,8.60
2023-03-12T02:56:24.313Z,8.90
2023-03-12T02:58:51.119Z,8.40
2023-03-12T03:01:18.566Z,8.33
2023-03-12T03:03:45.462Z,8.93
2023-03-12T03:06:12.426Z,8.33
2023-03-12T03:08:39.336Z,7.53
2023-03-12T03:11:07.041Z,7.27
2023-03-12T03:13:34.418Z,7.90
2023-03-12T03:16:03.612Z,8.10
2023-03-12T03:18:31.258Z,8.10
2023-03-12T03:21:03.883Z,7.30
2023-03-12T03:23:31.048Z,7.53
2023-03-12T03:25:59.549Z,8.10
2023-03-12T03:28:28.145Z,7.60
2023-03-12T03:30:58.070Z,7.73
2023-03-12T03:33:24.739Z,7.03
2023-03-12T03:35:51.414Z,7.00
2023-03-12T03:38:18.020Z,6.67
2023-03-12T03:40:44.611Z,6.57
2023-03-12T03:43:11.240Z,6.60
2023-03-12T03:45:37.942Z,6.40
2023-03-12T03:48:04.860Z,7.33
2023-03-12T03:50:31.596Z,6.20
2023-03-12T03:52:58.241Z,6.97
2023-03-12T03:55:24.870Z,6.40
2023-03-12T03:57:51.442Z,6.53
2023-03-12T04:00:18.432Z,6.00
2023-03-12T04:02:45.235Z,6.37
2023-03-12T04:05:11.940Z,5.80
2023-03-12T04:07:38.612Z,5.97
2023-03-12T04:10:05.730Z,5.73
2023-03-12T04:12:32.281Z,5.20
2023-03-12T04:14:58.920Z,4.60
2023-03-12T04:17:25.546Z,4.90
2023-03-12T04:19:52.142Z,4.40
2023-03-12T04:22:18.701Z,4.43
2023-03-12T04:24:45.289Z,5.27
2023-03-12T04:27:11.936Z,4.83
2023-03-12T04:29:40.601Z,4.23
2023-03-12T04:32:07.599Z,3.70
2023-03-12T04:34:34.498Z,4.10
2023-03-12T04:37:02.854Z,4.07
2023-03-12T04:39:29.560Z,3.90
2023-03-12T04:41:56.114Z,4.37
2023-03-12T04:44:22.848Z,3.90
2023-03-12T04:46:49.603Z,4.17
2023-03-12T04:49:16.278Z,3.67
2023-03-12T04:51:43.223Z,3.80
2023-03-12T04:54:09.800Z,3.60
2023-03-12T04:56:36.562Z,3.97
2023-03-12T04:59:03.426Z,3.37
2023-03-12T05:01:32.819Z,4.50
2023-03-12T05:04:00.110Z,4.00
2023-03-12T05:06:26.910Z,2.90
2023-03-12T05:08:53.614Z,2.70
2023-03-12T05:11:21.129Z,2.47
2023-03-12T05:13:48.583Z,2.37
2023-03-12T05:16:15.965Z,2.60
2023-03-12T05:18:43.035Z,2.27
2023-03-12T05:21:13.766Z,1.90
2023-03-12T05:23:42.447Z,2.37
2023-03-12T05:26:26.372Z,2.03
2023-03-12T05:28:53.312Z,2.17
2023-03-12T05:31:20.874Z,2.07
2023-03-12T05:33:47.828Z,2.07
2023-03-12T05:36:15.496Z,2.10
2023-03-12T05:38:45.428Z,2.20
2023-03-12T05:41:27.121Z,2.40
2023-03-12T05:43:56.205Z,2.13
2023-03-12T05:46:24.197Z,2.13
2023-03-12T05:48:54.255Z,2.53
2023-03-12T05:51:21.506Z,2.23
2023-03-12T05:53:48.150Z,2.40
2023-03-12T05:56:17.559Z,2.40
2023-03-12T05:58:44.806Z,2.17
2023-03-12T06:01:21.712Z,2.13
2023-03-12T06:03:48.642Z,2.17
2023-03-12T06:06:15.684Z,2.00
2023-03-12T06:08:42.876Z,1.70
2023-03-12T06:11:10.238Z,2.37
2023-03-12T06:13:36.929Z,2.33
2023-03-12T06:16:05.844Z,2.20
2023-03-12T06:18:34.016Z,1.63
2023-03-12T06:21:20.539Z,1.83
2023-03-12T06:23:47.412Z,2.30
2023-03-12T06:26:14.887Z,1.80
2023-03-12T06:28:41.557Z,1.90
2023-03-12T06:31:09.051Z,2.10
2023-03-12T06:33:36.286Z,1.90
2023-03-12T06:36:05.247Z,1.97
2023-03-12T06:38:32.389Z,2.03
2023-03-12T06:41:00.160Z,2.37
2023-03-12T06:43:28.298Z,2.17
2023-03-12T06:45:56.675Z,1.83
2023-03-12T06:48:24.180Z,2.47
2023-03-12T06:50:51.519Z,2.10
2023-03-12T06:53:19.510Z,2.13
2023-03-12T06:55:46.802Z,2.23
2023-03-12T06:58:13.562Z,2.40
2023-03-12T07:00:40.316Z,2.07
2023-03-12T07:03:07.237Z,1.90
2023-03-12T07:05:33.893Z,2.47
2023-03-12T07:08:00.598Z,2.40
2023-03-12T07:10:30.036Z,2.50
2023-03-12T07:12:56.903Z,2.50
2023-03-12T07:15:23.972Z,2.20
2023-03-12T07:17:50.789Z,2.27
2023-03-12T07:20:17.677Z,2.17
2023-03-12T07:22:44.897Z,2.23
2023-03-12T07:25:11.610Z,2.50
2023-03-12T07:27:38.351Z,2.43
2023-03-12T07:30:05.422Z,2.20
2023-03-12T07:32:33.458Z,2.57
2023-03-12T07:35:00.236Z,2.30
2023-03-12T07:37:26.898Z,2.87
2023-03-12T07:39:54.713Z,2.53
2023-03-12T07:42:21.731Z,2.37
2023-03-12T07:44:48.599Z,2.40
2023-03-12T07:47:23.747Z,2.80
2023-03-12T07:49:51.323Z,2.60
2023-03-12T07:52:19.977Z,3.30
2023-03-12T07:54:46.609Z,2.70
2023-03-12T07:57:13.320Z,2.67
2023-03-12T07:59:40.083Z,2.73
2023-03-12T08:02:07.084Z,3.60
2023-03-12T08:04:33.924Z,2.80
2023-03-12T08:07:02.054Z,2.73
2023-03-12T08:09:29.450Z,2.77
2023-03-12T08:11:56.044Z,2.97
2023-03-12T08:14:22.708Z,2.90
2023-03-12T08:16:49.953Z,2.73
2023-03-12T08:19:16.969Z,2.20
2023-03-12T08:21:44.060Z,2.77
2023-03-12T08:24:13.002Z,3.13
2023-03-12T08:26:39.757Z,2.73
2023-03-12T08:29:06.407Z,3.30
2023-03-12T08:31:33.151Z,3.07
2023-03-12T08:33:59.739Z,3.10
2023-03-12T08:36:26.602Z,3.20
2023-03-12T08:38:53.553Z,2.97
2023-03-12T08:41:20.568Z,3.20
2023-03-12T08:43:47.318Z,2.80
2023-03-12T08:46:14.030Z,3.60
2023-03-12T08:48:40.904Z,3.00
2023-03-12T08:51:07.991Z,3.20
2023-03-12T08:53:36.330Z,3.03
2023-03-12T08:56:03.711Z,3.30
2023-03-12T08:58:30.715Z,3.47
2023-03-12T09:00:58.087Z,3.37
2023-03-12T09:03:25.864Z,2.87
2023-03-12T09:06:07.396Z,3.10
2023-03-12T09:08:34.068Z,3.87
2023-03-12T09:11:02.007Z,3.40
2023-03-12T09:13:40.686Z,5.67
2023-03-12T09:16:15.623Z,4.07
2023-03-12T09:18:42.226Z,4.80
2023-03-12T09:21:08.854Z,3.77
2023-03-12T09:23:35.508Z,5.37
2023-03-12T09:26:02.126Z,4.53
2023-03-12T09:28:28.690Z,4.10
2023-03-12T09:30:55.269Z,4.60
2023-03-12T09:33:21.876Z,5.00
2023-03-12T09:35:57.295Z,4.30
2023-03-12T09:38:23.944Z,3.90
2023-03-12T09:40:50.828Z,3.90
2023-03-12T09:43:32.596Z,4.20
2023-03-12T09:46:01.139Z,5.20
2023-03-12T09:48:36.510Z,3.50
2023-03-12T09:51:09.564Z,3.60
2023-03-12T09:53:46.985Z,3.53
2023-03-12T09:56:17.016Z,3.60
2023-03-12T09:58:48.013Z,4.17
2023-03-12T10:01:32.788Z,4.50
2023-03-12T10:04:56.360Z,3.40
2023-03-12T10:07:32.266Z,4.33
2023-03-12T10:10:15.672Z,4.40
2023-03-12T10:12:42.253Z,4.50
2023-03-12T10:15:11.722Z,4.30
2023-03-12T10:18:00.751Z,4.70
2023-03-12T10:20:54.512Z,5.40
2023-03-12T10:23:54.451Z,5.70
2023-03-12T10:26:32.077Z,5.07
2023-03-12T10:29:23.265Z,4.80
2023-03-12T10:32:10.847Z,4.60
2023-03-12T10:35:06.199Z,4.47
2023-03-12T10:37:46.477Z,4.43
2023-03-12T10:40:20.003Z,4.10
2023-03-12T10:42:46.725Z,4.10
2023-03-12T10:45:25.821Z,4.00
2023-03-12T10:47:57.281Z,4.63
2023-03-12T10:50:26.747Z,4.00
2023-03-12T10:53:20.237Z,4.43
2023-03-12T10:56:08.321Z,4.20
2023-03-12T10:58:39.548Z,4.50
2023-03-12T11:01:28.572Z,5.60
2023-03-12T11:04:29.971Z,5.70
2023-03-12T11:07:19.796Z,6.27
2023-03-12T11:09:52.671Z,7.43
2023-03-12T11:12:29.561Z,8.90
2023-03-12T11:14:57.311Z,9.83
2023-03-12T11:17:29.117Z,9.90
2023-03-12T11:19:56.081Z,11.13
2023-03-12T11:22:31.491Z,12.33
2023-03-12T11:25:01.151Z,12.13
2023-03-12T11:27:42.491Z,12.60
2023-03-12T11:30:13.983Z,13.10
2023-03-12T11:32:45.445Z,12.97
2023-03-12T11:35:14.552Z,13.10
2023-03-12T11:38:02.633Z,14.27
2023-03-12T11:40:41.236Z,15.40
2023-03-12T11:43:44.261Z,16.53
2023-03-12T11:46:30.110Z,17.13
2023-03-12T11:49:24.083Z,15.50
2023-03-12T11:52:12.773Z,15.40
2023-03-12T11:54:59.316Z,13.30
2023-03-12T11:57:47.590Z,15.60
2023-03-12T12:00:35.812Z,17.57
2023-03-12T12:03:12.298Z,14.90
2023-03-12T12:05:53.873Z,15.20
2023-03-12T12:08:40.308Z,17.20
2023-03-12T12:11:45.166Z,16.47
2023-03-12T12:14:45.000Z,17.60
2023-03-12T12:17:23.152Z,15.80
2023-03-12T12:20:19.047Z,17.53
2023-03-12T12:23:02.063Z,16.97
2023-03-12T12:25:42.884Z,17.40
2023-03-12T12:28:24.479Z,16.87
2023-03-12T12:31:04.709Z,18.00
2023-03-12T12:34:11.138Z,17.27
2023-03-12T12:36:38.932Z,18.03
2023-03-12T12:39:14.052Z,18.10
2023-03-12T12:41:49.462Z,19.57
2023-03-12T12:44:27.561Z,17.37
2023-03-12T12:47:02.283Z,19.17
2023-03-12T12:49:39.024Z,19.40
2023-03-12T12:52:11.316Z,18.70
2023-03-12T12:54:46.541Z,19.27
2023-03-12T12:57:24.103Z,20.70
2023-03-12T13:00:04.804Z,20.40
2023-03-12T13:02:33.941Z,19.30
2023-03-12T13:05:01.664Z,20.83
2023-03-12T13:07:36.237Z,21.60
2023-03-12T13:10:37.606Z,18.90
2023-03-12T13:13:27.238Z,18.97
2023-03-12T13:16:26.659Z,20.13
2023-03-12T13:19:10.121Z,18.90
2023-03-12T13:22:11.020Z,17.97
2023-03-12T13:25:09.168Z,17.80
2023-03-12T13:27:47.077Z,17.57
2023-03-12T13:30:40.532Z,19.77
2023-03-12T13:33:14.280Z,20.03
2023-03-12T13:36:06.934Z,19.03
2023-03-12T13:39:00.559Z,17.63
2023-03-12T13:41:39.229Z,16.43
2023-03-12T13:44:26.669Z,15.30
2023-03-12T13:46:59.345Z,15.60
2023-03-12T13:49:27.205Z,14.60
2023-03-12T13:52:00.263Z,13.40
2023-03-12T13:54:33.421Z,13.80
2023-03-12T13:57:04.365Z,12.60
2023-03-12T13:59:32.186Z,12.67
2023-03-12T14:02:03.735Z,11.43
2023-03-12T14:04:40.739Z,11.40
2023-03-12T14:07:28.402Z,10.23
2023-03-12T14:10:13.546Z,11.03
2023-03-12T14:13:07.566Z,9.80
2023-03-12T14:16:04.866Z,10.30
2023-03-12T14:18:35.591Z,9.17
2023-03-12T14:21:10.074Z,8.43
2023-03-12T14:23:40.960Z,9.67
2023-03-12T14:26:12.255Z,8.00
2023-03-12T14:28:41.863Z,9.90
2023-03-12T14:31:21.627Z,8.57
2023-03-12T14:33:55.922Z,8.00
2023-03-12T14:36:26.541Z,10.40
2023-03-12T14:39:08.539Z,11.10
2023-03-12T14:41:42.176Z,10.37
2023-03-12T14:44:26.182Z,11.30
2023-03-12T14:47:11.376Z,9.80
2023-03-12T14:49:46.005Z,9.67
2023-03-12T14:52:14.464Z,8.63
2023-03-12T14:54:57.208Z,8.43
2023-03-12T14:57:24.763Z,6.90
2023-03-12T14:59:57.097Z,6.23
2023-03-12T15:02:25.086Z,8.43
2023-03-12T15:04:56.052Z,5.57
2023-03-12T15:07:29.889Z,5.80
2023-03-12T15:09:56.735Z,5.80
2023-03-12T15:12:33.162Z,5.33
2023-03-12T15:15:08.132Z,5.40
2023-03-12T15:17:35.293Z,5.23
2023-03-12T15:20:07.092Z,6.00
2023-03-12T15:22:34.177Z,5.27
2023-03-12T15:25:29.053Z,5.60
2023-03-12T15:28:10.474Z,5.47
2023-03-12T15:30:39.308Z,5.70
2023-03-12T15:33:31.961Z,5.20
2023-03-12T15:36:18.180Z,5.73
2023-03-12T15:38:51.905Z,5.33
2023-03-12T15:41:22.643Z,5.20
2023-03-12T15:43:53.993Z,5.10
2023-03-12T15:46:21.234Z,4.63
2023-03-12T15:48:51.426Z,3.90
2023-03-12T15:51:33.867Z,4.67
2023-03-12T15:54:28.110Z,5.30
2023-03-12T15:56:55.435Z,3.63
2023-03-12T15:59:26.316Z,4.23
2023-03-12T16:01:55.208Z,4.20
2023-03-12T16:04:22.914Z,4.23
2023-03-12T16:06:51.164Z,4.20
2023-03-12T16:09:22.191Z,4.07
2023-03-12T16:11:49.083Z,4.20
2023-03-12T16:14:29.048Z,4.77
2023-03-12T16:16:55.852Z,4.50
2023-03-12T16:19:23.506Z,4.60
2023-03-12T16:21:50.538Z,4.33
2023-03-12T16:24:17.143Z,4.77
2023-03-12T16:26:50.755Z,4.43
2023-03-12T16:29:18.949Z,4.10
2023-03-12T16:31:52.411Z,4.00
2023-03-12T16:34:19.068Z,4.27
2023-03-12T16:36:45.753Z,4.33
2023-03-12T16:39:12.363Z,4.80
2023-03-12T16:41:39.367Z,4.83
2023-03-12T16:44:08.449Z,3.90
2023-03-12T16:46:35.274Z,4.60
2023-03-12T16:49:04.687Z,4.33
2023-03-12T16:51:31.311Z,6.83
2023-03-12T16:54:09.718Z,5.70
2023-03-12T16:56:38.539Z,4.97
2023-03-12T16:59:33.099Z,4.73
2023-03-12T17:01:59.907Z,4.10
2023-03-12T17:04:26.518Z,4.73
2023-03-12T17:06:53.067Z,5.10
2023-03-12T17:09:19.703Z,5.57
2023-03-12T17:11:48.520Z,4.40
2023-03-12T17:14:22.090Z,4.27
2023-03-12T17:16:49.307Z,4.40
2023-03-12T17:19:16.000Z,4.50
2023-03-12T17:21:43.260Z,4.63
2023-03-12T17:24:11.600Z,6.07
2023-03-12T17:26:38.140Z,4.80
2023-03-12T17:29:04.724Z,4.23
2023-03-12T17:31:31.376Z,4.07
2023-03-12T17:33:58.090Z,4.03
2023-03-12T17:36:24.653Z,4.20
2023-03-12T17:38:51.216Z,4.53
2023-03-12T17:41:26.041Z,3.93
2023-03-12T17:43:54.580Z,5.97
2023-03-12T17:46:21.238Z,3.70
2023-03-12T17:48:47.824Z,3.93
2023-03-12T17:51:14.363Z,5.80
2023-03-12T17:53:41.724Z,3.73
2023-03-12T17:56:08.452Z,4.63
2023-03-12T17:58:35.059Z,4.30
2023-03-12T18:01:01.713Z,4.20
2023-03-12T18:03:28.311Z,4.00
2023-03-12T18:05:55.101Z,5.50
2023-03-12T18:08:21.848Z,5.10
2023-03-12T18:10:48.727Z,4.97
2023-03-12T18:13:15.480Z,4.07
2023-03-12T18:15:42.067Z,3.53
2023-03-12T18:18:08.745Z,4.40
2023-03-12T18:20:39.527Z,4.47
2023-03-12T18:23:06.581Z,4.23
2023-03-12T18:25:33.395Z,4.40
2023-03-12T18:27:59.990Z,4.20
2023-03-12T18:30:28.063Z,3.87
2023-03-12T18:32:54.880Z,3.80
2023-03-12T18:35:22.614Z,4.70
2023-03-12T18:37:51.729Z,4.70
2023-03-12T18:40:18.474Z,4.13
2023-03-12T18:42:45.112Z,3.77
2023-03-12T18:45:12.545Z,4.37
2023-03-12T18:47:39.487Z,3.80
2023-03-12T18:50:09.916Z,3.83
2023-03-12T18:52:36.584Z,4.60
2023-03-12T18:55:04.308Z,4.23
2023-03-12T18:57:31.591Z,4.83
2023-03-12T18:59:59.407Z,3.77
2023-03-12T19:02:26.029Z,5.33
2023-03-12T19:04:55.515Z,5.47
2023-03-12T19:07:22.666Z,4.40
2023-03-12T19:09:49.308Z,5.10
2023-03-12T19:12:15.957Z,4.80
2023-03-12T19:14:42.518Z,5.50
2023-03-12T19:17:09.078Z,4.03
2023-03-12T19:19:35.746Z,5.80
2023-03-12T19:22:02.410Z,4.00
2023-03-12T19:24:28.984Z,4.43
2023-03-12T19:26:56.049Z,5.00
2023-03-12T19:29:22.660Z,4.50
2023-03-12T19:31:49.230Z,4.47
2023-03-12T19:34:17.153Z,5.40
2023-03-12T19:36:43.893Z,5.50
2023-03-12T19:39:20.559Z,7.33
2023-03-12T19:41:47.609Z,5.10
2023-03-12T19:44:14.220Z,4.33
2023-03-12T19:46:42.903Z,4.30
2023-03-12T19:49:09.501Z,4.70
2023-03-12T19:51:36.252Z,4.30
2023-03-12T19:54:02.943Z,4.77
2023-03-12T19:56:29.576Z,3.97
2023-03-12T19:58:56.171Z,4.80
2023-03-12T20:01:22.962Z,3.90
2023-03-12T20:03:49.601Z,4.53
2023-03-12T20:06:16.258Z,4.60
2023-03-12T20:08:44.407Z,4.90
2023-03-12T20:11:11.178Z,3.70
2023-03-12T20:13:40.844Z,4.97
2023-03-12T20:16:07.893Z,3.90
2023-03-12T20:18:34.588Z,3.20
2023-03-12T20:21:01.308Z,3.60
2023-03-12T20:23:27.924Z,3.90
2023-03-12T20:25:54.512Z,4.07
2023-03-12T20:28:21.063Z,4.13
2023-03-12T20:30:48.462Z,3.77
2023-03-12T20:33:15.150Z,3.50
2023-03-12T20:35:41.796Z,3.77
2023-03-12T20:38:08.468Z,3.80
2023-03-12T20:40:35.502Z,4.20
2023-03-12T20:43:05.278Z,5.20
2023-03-12T20:45:32.933Z,3.47
2023-03-12T20:48:00.377Z,3.23
2023-03-12T20:50:27.937Z,4.10
2023-03-12T20:52:54.612Z,3.13
2023-03-12T20:55:21.230Z,3.00
2023-03-12T20:57:47.924Z,3.00
2023-03-12T21:00:14.770Z,3.87
2023-03-12T21:02:41.465Z,3.67
2023-03-12T21:05:11.236Z,3.90
2023-03-12T21:07:38.249Z,2.90
2023-03-12T21:10:05.739Z,3.70
2023-03-12T21:12:32.411Z,3.50
2023-03-12T21:15:05.978Z,3.70
2023-03-12T21:17:34.236Z,4.23
2023-03-12T21:20:02.054Z,5.40
2023-03-12T21:22:31.937Z,5.43
2023-03-12T21:24:58.572Z,6.33
2023-03-12T21:27:25.156Z,5.23
2023-03-12T21:29:52.990Z,6.43
2023-03-12T21:32:20.791Z,4.43
2023-03-12T21:34:48.000Z,4.13
2023-03-12T21:37:15.535Z,4.73
2023-03-12T21:39:42.713Z,4.43
2023-03-12T21:42:09.352Z,4.90
2023-03-12T21:44:37.081Z,3.70
2023-03-12T21:47:06.798Z,4.00
2023-03-12T21:49:34.719Z,2.67
2023-03-12T21:52:02.723Z,3.50
2023-03-12T21:54:33.997Z,3.00
2023-03-12T21:57:02.987Z,3.70
2023-03-12T21:59:30.659Z,3.30
2023-03-12T22:01:57.671Z,3.80
2023-03-12T22:04:24.706Z,3.37
2023-03-12T22:06:51.452Z,3.80
2023-03-12T22:09:18.491Z,3.53
2023-03-12T22:11:45.078Z,3.93
2023-03-12T22:14:11.715Z,4.23
2023-03-12T22:16:38.279Z,3.27
2023-03-12T22:19:04.870Z,3.43
2023-03-12T22:21:31.467Z,4.00
2023-03-12T22:24:00.226Z,3.00
2023-03-12T22:26:26.963Z,3.30
2023-03-12T22:28:55.882Z,3.73
2023-03-12T22:31:23.788Z,3.93
2023-03-12T22:33:50.504Z,3.63
2023-03-12T22:36:18.516Z,3.63
2023-03-12T22:38:47.559Z,3.83
2023-03-12T22:41:25.604Z,3.37
2023-03-12T22:43:54.397Z,4.83
2023-03-12T22:46:23.379Z,3.97
2023-03-12T22:48:58.869Z,3.30
2023-03-12T22:51:26.144Z,3.73
2023-03-12T22:53:52.869Z,3.10
2023-03-12T22:56:19.584Z,4.10
2023-03-12T22:58:46.383Z,2.63
2023-03-12T23:01:18.516Z,5.17
2023-03-12T23:03:46.246Z,3.10
2023-03-12T23:06:34.208Z,3.50
2023-03-12T23:09:01.093Z,3.20
2023-03-12T23:11:29.448Z,3.30
2023-03-12T23:13:56.316Z,3.57
2023-03-12T23:16:25.339Z,3.73
2023-03-12T23:18:52.190Z,2.67
2023-03-12T23:21:21.193Z,3.00
2023-03-12T23:23:49.213Z,4.00
2023-03-12T23:26:19.341Z,3.30
2023-03-12T23:28:47.175Z,4.63
2023-03-12T23:31:15.635Z,2.53
2023-03-12T23:33:42.589Z,2.83
2023-03-12T23:36:13.313Z,3.50
2023-03-12T23:38:40.030Z,2.67
2023-03-12T23:41:10.902Z,2.77
2023-03-12T23:43:37.931Z,3.47
2023-03-12T23:46:06.127Z,2.30
2023-03-12T23:48:34.078Z,2.70
2023-03-12T23:51:08.443Z,2.67
2023-03-12T23:53:36.158Z,2.80
2023-03-12T23:56:04.763Z,2.83
2023-03-12T23:58:31.798Z,3.07
